Etusivu
METAR-TAF:

METAR-TAF

Lentoasemat :

Kake, Alaska, Yhdysvallat

Leveyspiiri: 56-57N, Pituuspiiri: 133-54W, korkeus merenpinnasta: 52 m

Tämänhetkinen sää

Tämä raportti tehtiin 1 tunti ja 4 minuuttia sitten, kello 16.04 UTC
Tuuli 6 kn idästä/kaakosta
Lämpötila 1°C
Kosteus 100%
Ilmanpaine 1015 hPa
Näkyvyys: 2.8 km
Pilvistä 900 ft:n korkeudessa
heikkoa lumisadetta, utua

METAR: PAFE 231604Z AUTO 11006KT 1 3/4SM -SN BR OVC009 01/01 A2998 RMK AO2 VIS 1V5 CIG 006V012 P0002 FZRANO $

Aika: 09:08 (17:08 UTC)


TAF: puuttuu

Säähavainnot ja -ennusteet yli 4000 lentoasemalta (METAR- ja TAF-raportit).

Käytössä olevat sääasemat on merkitty karttaan keltaisilla ja punaisilla pisteillä.

Aseta hiiri pisteen päälle nähdäksesi sääaseman nimen.

Klikkaa sitten nähdäksesi säähavainnot ja -ennusteet.

Kartan vaihtaminen: klikkaa mustalla rastilla varustettuja vihreitä pisteitä, niin voit zoomata sisään; viivalla varustettua vihreää pistettä, niin voit zoomata ulos tai vihreitä nuolia, niin pääset viereisille kartoille.


METAR-TAF: